Millennium Tender — WDF6464 — position and weather

sailwx.info

Track history (hours):
 
Tides and Currents Weather Stations Pressure Air Temp Water Temp Dewpoint Dewpoint Depression Visibility Wind Speed Wind Dir Waves Ship Positions

Millennium Tender

Owner: Harley Marine Services, INC, Seattle, WA. More information available from US FCC via Universal Licensing System and Coast Guard Vessel Documentation Center.

Last reported at 2018-May-19 14:18 UTC. Time now 2018-May-21 09:16 UTC.
Position N 33°44' W 118°16'.

Type: Port tender. MMSI: 367474540.

Date/timePositionNaut miles runAvg speedWind from/ knotsBaromVisibWave heightAir tempDewpointWater temp
2018-May-19 14:18N 33°44' W 118°16'1 4.3
2018-May-19 14:00N 33°43' W 118°15'3 6.3
2018-May-19 13:30N 33°45' W 118°12'3 6.7
2018-May-19 13:00N 33°44' W 118°16'0 0.0
2018-May-19 02:12N 33°44' W 118°16'0 2.1
2018-May-19 02:00N 33°43' W 118°16'4 8.6
2018-May-19 01:30N 33°44' W 118°10'4 8.8
2018-May-19 01:00N 33°44' W 118°16'0 0.3
2018-May-19 00:30N 33°44' W 118°16'0 0.0
2018-May-18 01:53N 33°44' W 118°16'2 4.2
2018-May-18 01:30N 33°43' W 118°14'2 3.0
2018-May-18 01:00N 33°44' W 118°16'0 0.3
2018-May-18 00:30N 33°44' W 118°16'  
2018-May-14 01:51N 33°44' W 118°16'2 5.0
2018-May-14 01:30N 33°43' W 118°14'2 3.3
2018-May-14 01:00N 33°44' W 118°16'  
2018-May-11 14:02N 33°44' W 118°16'0 0.0
2018-May-11 14:00N 33°44' W 118°16'2 4.3
2018-May-11 13:30N 33°44' W 118°13'2 4.0
2018-May-11 13:00N 33°44' W 118°16'0 0.0
2018-May-10 01:55N 33°44' W 118°16'2 5.2
2018-May-10 01:30N 33°43' W 118°13'2 3.9
2018-May-10 01:00N 33°44' W 118°16'0 0.0
2018-May-09 14:23N 33°44' W 118°16'  
Track history (hours):
 
Tides and Currents Weather Stations Pressure Air Temp Water Temp Dewpoint Dewpoint Depression Visibility Wind Speed Wind Dir Waves Ship Positions

Millennium Tender

Owner: Harley Marine Services, INC, Seattle, WA. More information available from US FCC via Universal Licensing System and Coast Guard Vessel Documentation Center.

Last reported at 2018-May-19 14:18 UTC. Time now 2018-May-21 09:16 UTC.
Position N 33°44' W 118°16'.

Type: Port tender. MMSI: 367474540.

Date/timePositionNaut miles runAvg speedWind from/ knotsBaromVisibWave heightAir tempDewpointWater temp
2018-May-19 14:18N 33°44' W 118°16'1 4.3
2018-May-19 14:00N 33°43' W 118°15'3 6.3
2018-May-19 13:30N 33°45' W 118°12'3 6.7
2018-May-19 13:00N 33°44' W 118°16'0 0.0
2018-May-19 02:12N 33°44' W 118°16'0 2.1
2018-May-19 02:00N 33°43' W 118°16'4 8.6
2018-May-19 01:30N 33°44' W 118°10'4 8.8
2018-May-19 01:00N 33°44' W 118°16'0 0.3
2018-May-19 00:30N 33°44' W 118°16'0 0.0
2018-May-18 01:53N 33°44' W 118°16'2 4.2
2018-May-18 01:30N 33°43' W 118°14'2 3.0
2018-May-18 01:00N 33°44' W 118°16'0 0.3
2018-May-18 00:30N 33°44' W 118°16'  
2018-May-14 01:51N 33°44' W 118°16'2 5.0
2018-May-14 01:30N 33°43' W 118°14'2 3.3
2018-May-14 01:00N 33°44' W 118°16'  
2018-May-11 14:02N 33°44' W 118°16'0 0.0
2018-May-11 14:00N 33°44' W 118°16'2 4.3
2018-May-11 13:30N 33°44' W 118°13'2 4.0
2018-May-11 13:00N 33°44' W 118°16'0 0.0
2018-May-10 01:55N 33°44' W 118°16'2 5.2
2018-May-10 01:30N 33°43' W 118°13'2 3.9
2018-May-10 01:00N 33°44' W 118°16'0 0.0
2018-May-09 14:23N 33°44' W 118°16'  

Dump ship's entire track history